Terminal Aerodrome Forecast
Issued by NWS Denver/Boulder, CO

Home | Current Version | Previous Version | Text Only | Print | Product List | Glossary On
Versions: 1 2 3 4 5 6 7 8 9 10 11 12 13 14 15 16 17 18 19 20 21 22 23 24 25 26 27 28 29 30 31 32 33 34 35 36 37 38 39 40 41 42 43 44 45 46 47 48 49 50
000
FTUS45 KBOU 280333 AAD
TAFDEN
TAF AMD
KDEN 280333Z 2804/2906 02014KT P6SM -TSRA BKN050CB OVC080
     FM280400 35012KT P6SM VCSH SCT070 BKN090 BKN110
     FM280500 25009KT P6SM SCT090 BKN140
     FM281600 33009KT P6SM FEW050 SCT090 BKN150
     FM282000 36011KT P6SM SCT070 BKN110
      TEMPO 2820/2824 VRB15G30KT -TSRA BKN050CB
     FM290100 23010KT P6SM SCT080 SCT150=

USA.gov is the U.S. government's official web portal to all federal, state and local government web resources and services.